sensor_id;sensor_type;location;lat;lon;timestamp;P1;durP1;ratioP1;P2;durP2;ratioP2
25345;SDS011;13300;51.032;3.710;2023-04-01T00:00:48;23.30;;;9.15;;
25345;SDS011;13300;51.032;3.710;2023-04-01T00:03:14;23.48;;;9.20;;
25345;SDS011;13300;51.032;3.710;2023-04-01T00:05:40;18.27;;;8.38;;
25345;SDS011;13300;51.032;3.710;2023-04-01T00:08:06;23.33;;;9.48;;
25345;SDS011;13300;51.032;3.710;2023-04-01T00:10:32;24.00;;;9.38;;
25345;SDS011;13300;51.032;3.710;2023-04-01T00:12:58;19.30;;;9.55;;
25345;SDS011;13300;51.032;3.710;2023-04-01T00:15:23;21.70;;;9.55;;
25345;SDS011;13300;51.032;3.710;2023-04-01T00:17:49;24.45;;;9.68;;
25345;SDS011;13300;51.032;3.710;2023-04-01T00:20:15;25.52;;;9.85;;
25345;SDS011;13300;51.032;3.710;2023-04-01T00:22:41;23.45;;;9.30;;
25345;SDS011;13300;51.032;3.710;2023-04-01T00:25:07;26.08;;;10.98;;
25345;SDS011;13300;51.032;3.710;2023-04-01T00:27:33;23.02;;;9.95;;
25345;SDS011;13300;51.032;3.710;2023-04-01T00:29:59;22.65;;;9.55;;
25345;SDS011;13300;51.032;3.710;2023-04-01T00:32:25;24.27;;;9.82;;
25345;SDS011;13300;51.032;3.710;2023-04-01T00:34:51;21.17;;;9.68;;
25345;SDS011;13300;51.032;3.710;2023-04-01T00:37:17;26.25;;;9.55;;
25345;SDS011;13300;51.032;3.710;2023-04-01T00:39:46;26.15;;;10.77;;
25345;SDS011;13300;51.032;3.710;2023-04-01T00:42:11;26.27;;;11.23;;
25345;SDS011;13300;51.032;3.710;2023-04-01T00:44:39;20.60;;;11.63;;
25345;SDS011;13300;51.032;3.710;2023-04-01T00:47:05;19.73;;;11.55;;
25345;SDS011;13300;51.032;3.710;2023-04-01T00:49:36;27.58;;;11.40;;
25345;SDS011;13300;51.032;3.710;2023-04-01T00:52:08;2.75;;;1.27;;
25345;SDS011;13300;51.032;3.710;2023-04-01T00:54:37;6.03;;;2.35;;
25345;SDS011;13300;51.032;3.710;2023-04-01T00:57:15;17.40;;;6.38;;
25345;SDS011;13300;51.032;3.710;2023-04-01T01:00:04;14.77;;;6.75;;
25345;SDS011;13300;51.032;3.710;2023-04-01T01:02:34;14.93;;;6.22;;
25345;SDS011;13300;51.032;3.710;2023-04-01T01:05:00;21.85;;;7.57;;
25345;SDS011;13300;51.032;3.710;2023-04-01T01:27:12;24.27;;;8.00;;
25345;SDS011;13300;51.032;3.710;2023-04-01T01:34:49;24.60;;;8.15;;
25345;SDS011;13300;51.032;3.710;2023-04-01T01:37:21;21.35;;;6.97;;
25345;SDS011;13300;51.032;3.710;2023-04-01T01:39:54;24.38;;;7.00;;
25345;SDS011;13300;51.032;3.710;2023-04-01T01:42:26;16.98;;;7.03;;
25345;SDS011;13300;51.032;3.710;2023-04-01T01:44:58;22.70;;;7.40;;
25345;SDS011;13300;51.032;3.710;2023-04-01T01:47:26;26.52;;;7.50;;
25345;SDS011;13300;51.032;3.710;2023-04-01T01:49:54;22.92;;;7.55;;
25345;SDS011;13300;51.032;3.710;2023-04-01T01:52:24;21.88;;;7.22;;
25345;SDS011;13300;51.032;3.710;2023-04-01T01:54:54;22.98;;;6.75;;
25345;SDS011;13300;51.032;3.710;2023-04-01T01:57:26;23.92;;;7.03;;
25345;SDS011;13300;51.032;3.710;2023-04-01T02:00:02;19.42;;;6.72;;
25345;SDS011;13300;51.032;3.710;2023-04-01T02:02:39;18.85;;;7.20;;
25345;SDS011;13300;51.032;3.710;2023-04-01T02:05:07;22.70;;;6.72;;
25345;SDS011;13300;51.032;3.710;2023-04-01T02:10:02;20.38;;;6.95;;
25345;SDS011;13300;51.032;3.710;2023-04-01T02:12:29;25.23;;;7.13;;
25345;SDS011;13300;51.032;3.710;2023-04-01T02:15:00;27.30;;;7.97;;
25345;SDS011;13300;51.032;3.710;2023-04-01T02:17:33;27.20;;;7.57;;
25345;SDS011;13300;51.032;3.710;2023-04-01T02:20:04;21.77;;;7.55;;
25345;SDS011;13300;51.032;3.710;2023-04-01T02:22:39;29.25;;;8.10;;
25345;SDS011;13300;51.032;3.710;2023-04-01T02:25:10;25.83;;;8.80;;
25345;SDS011;13300;51.032;3.710;2023-04-01T02:27:39;5.15;;;1.63;;
25345;SDS011;13300;51.032;3.710;2023-04-01T02:30:07;20.30;;;7.72;;
25345;SDS011;13300;51.032;3.710;2023-04-01T02:32:34;24.55;;;8.13;;
25345;SDS011;13300;51.032;3.710;2023-04-01T02:35:04;29.13;;;7.50;;
25345;SDS011;13300;51.032;3.710;2023-04-01T02:37:41;0.35;;;0.10;;
25345;SDS011;13300;51.032;3.710;2023-04-01T02:40:08;26.73;;;9.13;;
25345;SDS011;13300;51.032;3.710;2023-04-01T02:45:04;22.08;;;9.15;;
25345;SDS011;13300;51.032;3.710;2023-04-01T02:47:31;23.73;;;8.43;;
25345;SDS011;13300;51.032;3.710;2023-04-01T02:49:57;27.40;;;8.98;;
25345;SDS011;13300;51.032;3.710;2023-04-01T02:52:27;26.17;;;9.85;;
25345;SDS011;13300;51.032;3.710;2023-04-01T02:54:54;26.05;;;8.82;;
25345;SDS011;13300;51.032;3.710;2023-04-01T02:57:20;28.27;;;8.15;;
25345;SDS011;13300;51.032;3.710;2023-04-01T02:59:47;21.02;;;9.38;;
25345;SDS011;13300;51.032;3.710;2023-04-01T03:02:13;23.55;;;8.80;;
25345;SDS011;13300;51.032;3.710;2023-04-01T03:04:39;30.83;;;9.35;;
25345;SDS011;13300;51.032;3.710;2023-04-01T03:07:05;22.75;;;7.78;;
25345;SDS011;13300;51.032;3.710;2023-04-01T03:09:31;24.17;;;8.68;;
25345;SDS011;13300;51.032;3.710;2023-04-01T03:11:57;26.08;;;8.55;;
25345;SDS011;13300;51.032;3.710;2023-04-01T03:14:23;22.05;;;9.43;;
25345;SDS011;13300;51.032;3.710;2023-04-01T03:16:49;25.50;;;8.98;;
25345;SDS011;13300;51.032;3.710;2023-04-01T03:19:14;29.00;;;9.20;;
25345;SDS011;13300;51.032;3.710;2023-04-01T03:21:40;22.95;;;8.93;;
25345;SDS011;13300;51.032;3.710;2023-04-01T03:24:06;19.23;;;8.63;;
25345;SDS011;13300;51.032;3.710;2023-04-01T03:26:32;27.13;;;9.73;;
25345;SDS011;13300;51.032;3.710;2023-04-01T03:28:58;18.90;;;8.18;;
25345;SDS011;13300;51.032;3.710;2023-04-01T03:31:24;16.20;;;8.43;;
25345;SDS011;13300;51.032;3.710;2023-04-01T03:33:50;15.25;;;7.38;;
25345;SDS011;13300;51.032;3.710;2023-04-01T03:36:16;16.77;;;8.60;;
25345;SDS011;13300;51.032;3.710;2023-04-01T03:38:43;16.58;;;7.70;;
25345;SDS011;13300;51.032;3.710;2023-04-01T03:41:16;16.25;;;7.65;;
25345;SDS011;13300;51.032;3.710;2023-04-01T03:43:42;17.00;;;8.05;;
25345;SDS011;13300;51.032;3.710;2023-04-01T03:46:08;14.95;;;6.93;;
25345;SDS011;13300;51.032;3.710;2023-04-01T03:48:34;10.05;;;6.55;;
25345;SDS011;13300;51.032;3.710;2023-04-01T03:51:00;13.07;;;6.22;;
25345;SDS011;13300;51.032;3.710;2023-04-01T03:53:26;18.52;;;6.43;;
25345;SDS011;13300;51.032;3.710;2023-04-01T03:55:52;12.40;;;5.68;;
25345;SDS011;13300;51.032;3.710;2023-04-01T03:58:18;10.57;;;5.75;;
25345;SDS011;13300;51.032;3.710;2023-04-01T04:00:44;8.18;;;5.22;;
25345;SDS011;13300;51.032;3.710;2023-04-01T04:03:10;12.57;;;4.57;;
25345;SDS011;13300;51.032;3.710;2023-04-01T04:05:36;11.60;;;5.30;;
25345;SDS011;13300;51.032;3.710;2023-04-01T04:08:02;9.95;;;4.82;;
25345;SDS011;13300;51.032;3.710;2023-04-01T04:10:28;7.32;;;4.30;;
25345;SDS011;13300;51.032;3.710;2023-04-01T04:12:54;11.32;;;4.95;;
25345;SDS011;13300;51.032;3.710;2023-04-01T04:15:20;5.32;;;4.22;;
25345;SDS011;13300;51.032;3.710;2023-04-01T04:17:47;4.88;;;3.45;;
25345;SDS011;13300;51.032;3.710;2023-04-01T04:20:13;4.65;;;3.72;;
25345;SDS011;13300;51.032;3.710;2023-04-01T04:22:39;6.97;;;4.53;;
25345;SDS011;13300;51.032;3.710;2023-04-01T04:25:05;6.20;;;4.10;;
25345;SDS011;13300;51.032;3.710;2023-04-01T04:27:32;6.15;;;3.90;;
25345;SDS011;13300;51.032;3.710;2023-04-01T04:29:58;11.05;;;5.10;;
25345;SDS011;13300;51.032;3.710;2023-04-01T04:32:24;12.38;;;6.13;;
25345;SDS011;13300;51.032;3.710;2023-04-01T04:34:50;14.13;;;6.78;;
25345;SDS011;13300;51.032;3.710;2023-04-01T04:37:15;13.63;;;8.25;;
25345;SDS011;13300;51.032;3.710;2023-04-01T04:39:41;18.33;;;8.45;;
25345;SDS011;13300;51.032;3.710;2023-04-01T04:42:07;12.95;;;8.13;;
25345;SDS011;13300;51.032;3.710;2023-04-01T04:44:33;16.88;;;8.38;;
25345;SDS011;13300;51.032;3.710;2023-04-01T04:46:58;16.95;;;8.15;;
25345;SDS011;13300;51.032;3.710;2023-04-01T04:49:24;18.85;;;8.68;;
25345;SDS011;13300;51.032;3.710;2023-04-01T04:51:50;22.83;;;9.40;;
25345;SDS011;13300;51.032;3.710;2023-04-01T04:54:17;15.85;;;8.73;;
25345;SDS011;13300;51.032;3.710;2023-04-01T04:56:43;17.00;;;8.38;;
25345;SDS011;13300;51.032;3.710;2023-04-01T04:59:08;19.63;;;8.65;;
25345;SDS011;13300;51.032;3.710;2023-04-01T05:01:34;16.23;;;7.57;;
25345;SDS011;13300;51.032;3.710;2023-04-01T05:04:00;14.55;;;8.32;;
25345;SDS011;13300;51.032;3.710;2023-04-01T05:06:25;19.83;;;8.75;;
25345;SDS011;13300;51.032;3.710;2023-04-01T05:08:54;21.48;;;9.20;;
25345;SDS011;13300;51.032;3.710;2023-04-01T05:11:21;18.58;;;8.27;;
25345;SDS011;13300;51.032;3.710;2023-04-01T05:13:47;20.10;;;8.05;;
25345;SDS011;13300;51.032;3.710;2023-04-01T05:16:17;17.40;;;7.45;;
25345;SDS011;13300;51.032;3.710;2023-04-01T05:18:44;17.25;;;7.70;;
25345;SDS011;13300;51.032;3.710;2023-04-01T05:21:10;21.98;;;8.32;;
25345;SDS011;13300;51.032;3.710;2023-04-01T05:23:37;15.70;;;7.78;;
25345;SDS011;13300;51.032;3.710;2023-04-01T05:26:08;15.35;;;7.35;;
25345;SDS011;13300;51.032;3.710;2023-04-01T05:28:36;15.60;;;7.68;;
25345;SDS011;13300;51.032;3.710;2023-04-01T05:31:05;21.48;;;7.05;;
25345;SDS011;13300;51.032;3.710;2023-04-01T05:33:31;18.13;;;7.25;;
25345;SDS011;13300;51.032;3.710;2023-04-01T05:36:05;16.05;;;6.55;;
25345;SDS011;13300;51.032;3.710;2023-04-01T05:38:35;17.02;;;7.32;;
25345;SDS011;13300;51.032;3.710;2023-04-01T05:41:01;16.27;;;7.43;;
25345;SDS011;13300;51.032;3.710;2023-04-01T05:43:28;15.80;;;7.28;;
25345;SDS011;13300;51.032;3.710;2023-04-01T05:45:54;16.05;;;7.38;;
25345;SDS011;13300;51.032;3.710;2023-04-01T05:48:21;15.52;;;7.90;;
25345;SDS011;13300;51.032;3.710;2023-04-01T05:50:46;18.40;;;8.63;;
25345;SDS011;13300;51.032;3.710;2023-04-01T05:53:23;22.17;;;8.15;;
25345;SDS011;13300;51.032;3.710;2023-04-01T05:55:49;13.73;;;6.65;;
25345;SDS011;13300;51.032;3.710;2023-04-01T05:58:15;12.88;;;7.30;;
25345;SDS011;13300;51.032;3.710;2023-04-01T06:00:41;14.45;;;6.10;;
25345;SDS011;13300;51.032;3.710;2023-04-01T06:03:06;9.68;;;5.25;;
25345;SDS011;13300;51.032;3.710;2023-04-01T06:05:42;7.57;;;4.40;;
25345;SDS011;13300;51.032;3.710;2023-04-01T06:08:12;8.77;;;4.05;;
25345;SDS011;13300;51.032;3.710;2023-04-01T06:27:00;8.68;;;3.83;;
25345;SDS011;13300;51.032;3.710;2023-04-01T06:30:07;9.63;;;3.88;;
25345;SDS011;13300;51.032;3.710;2023-04-01T06:35:19;6.57;;;3.42;;
25345;SDS011;13300;51.032;3.710;2023-04-01T06:38:26;6.93;;;3.42;;
25345;SDS011;13300;51.032;3.710;2023-04-01T06:49:17;5.47;;;2.80;;
25345;SDS011;13300;51.032;3.710;2023-04-01T06:51:52;6.47;;;2.15;;
25345;SDS011;13300;51.032;3.710;2023-04-01T06:54:30;4.30;;;2.35;;
25345;SDS011;13300;51.032;3.710;2023-04-01T06:57:05;11.38;;;2.53;;
25345;SDS011;13300;51.032;3.710;2023-04-01T06:59:43;6.55;;;2.53;;
25345;SDS011;13300;51.032;3.710;2023-04-01T07:04:35;3.90;;;2.92;;
25345;SDS011;13300;51.032;3.710;2023-04-01T07:07:08;4.22;;;3.17;;
25345;SDS011;13300;51.032;3.710;2023-04-01T07:09:53;5.15;;;3.10;;
25345;SDS011;13300;51.032;3.710;2023-04-01T07:12:34;3.90;;;2.25;;
25345;SDS011;13300;51.032;3.710;2023-04-01T07:17:40;2.30;;;1.63;;
25345;SDS011;13300;51.032;3.710;2023-04-01T07:22:47;4.88;;;1.70;;
25345;SDS011;13300;51.032;3.710;2023-04-01T07:25:15;3.22;;;2.03;;
25345;SDS011;13300;51.032;3.710;2023-04-01T07:28:06;5.38;;;2.80;;
25345;SDS011;13300;51.032;3.710;2023-04-01T07:33:28;5.53;;;2.80;;
25345;SDS011;13300;51.032;3.710;2023-04-01T07:36:10;5.35;;;2.70;;
25345;SDS011;13300;51.032;3.710;2023-04-01T07:38:44;4.30;;;2.30;;
25345;SDS011;13300;51.032;3.710;2023-04-01T07:41:23;5.70;;;2.60;;
25345;SDS011;13300;51.032;3.710;2023-04-01T07:44:14;4.07;;;2.60;;
25345;SDS011;13300;51.032;3.710;2023-04-01T07:47:46;5.75;;;2.53;;
25345;SDS011;13300;51.032;3.710;2023-04-01T08:00:57;3.97;;;2.13;;
25345;SDS011;13300;51.032;3.710;2023-04-01T08:03:43;6.10;;;2.60;;
25345;SDS011;13300;51.032;3.710;2023-04-01T08:06:36;6.15;;;2.58;;
25345;SDS011;13300;51.032;3.710;2023-04-01T08:09:21;7.05;;;2.70;;
25345;SDS011;13300;51.032;3.710;2023-04-01T08:12:21;6.22;;;3.17;;
25345;SDS011;13300;51.032;3.710;2023-04-01T08:15:09;4.43;;;2.35;;
25345;SDS011;13300;51.032;3.710;2023-04-01T08:21:00;5.03;;;2.60;;
25345;SDS011;13300;51.032;3.710;2023-04-01T08:23:44;6.40;;;2.30;;
25345;SDS011;13300;51.032;3.710;2023-04-01T08:31:25;6.43;;;2.92;;
25345;SDS011;13300;51.032;3.710;2023-04-01T08:33:57;4.72;;;3.28;;
25345;SDS011;13300;51.032;3.710;2023-04-01T08:36:51;10.95;;;3.70;;
25345;SDS011;13300;51.032;3.710;2023-04-01T08:42:18;10.88;;;3.45;;
25345;SDS011;13300;51.032;3.710;2023-04-01T08:45:15;7.57;;;3.20;;
25345;SDS011;13300;51.032;3.710;2023-04-01T08:53:35;9.98;;;3.85;;
25345;SDS011;13300;51.032;3.710;2023-04-01T09:22:50;5.68;;;1.92;;
25345;SDS011;13300;51.032;3.710;2023-04-01T09:25:36;4.90;;;2.33;;
25345;SDS011;13300;51.032;3.710;2023-04-01T09:28:22;3.17;;;2.00;;
25345;SDS011;13300;51.032;3.710;2023-04-01T09:30:58;4.55;;;1.50;;
25345;SDS011;13300;51.032;3.710;2023-04-01T09:36:45;1.60;;;1.20;;
25345;SDS011;13300;51.032;3.710;2023-04-01T09:42:14;5.22;;;1.50;;
25345;SDS011;13300;51.032;3.710;2023-04-01T09:45:01;3.00;;;1.38;;
25345;SDS011;13300;51.032;3.710;2023-04-01T09:53:14;4.35;;;1.60;;
25345;SDS011;13300;51.032;3.710;2023-04-01T09:56:01;6.40;;;1.80;;
25345;SDS011;13300;51.032;3.710;2023-04-01T10:07:26;6.68;;;1.27;;
25345;SDS011;13300;51.032;3.710;2023-04-01T10:12:46;5.07;;;1.75;;
25345;SDS011;13300;51.032;3.710;2023-04-01T10:23:55;4.03;;;2.15;;
25345;SDS011;13300;51.032;3.710;2023-04-01T10:33:05;7.13;;;2.30;;
25345;SDS011;13300;51.032;3.710;2023-04-01T10:44:06;4.35;;;1.90;;
25345;SDS011;13300;51.032;3.710;2023-04-01T11:14:48;13.30;;;3.85;;
25345;SDS011;13300;51.032;3.710;2023-04-01T11:48:39;4.47;;;1.70;;
25345;SDS011;13300;51.032;3.710;2023-04-01T11:54:17;3.00;;;1.02;;
25345;SDS011;13300;51.032;3.710;2023-04-01T11:57:13;3.58;;;2.10;;
25345;SDS011;13300;51.032;3.710;2023-04-01T12:13:53;6.10;;;2.85;;
25345;SDS011;13300;51.032;3.710;2023-04-01T12:16:45;8.50;;;2.95;;
25345;SDS011;13300;51.032;3.710;2023-04-01T12:28:15;9.25;;;2.92;;
25345;SDS011;13300;51.032;3.710;2023-04-01T12:42:41;5.65;;;2.45;;
25345;SDS011;13300;51.032;3.710;2023-04-01T12:45:31;3.72;;;1.83;;
25345;SDS011;13300;51.032;3.710;2023-04-01T12:56:46;5.82;;;1.70;;
25345;SDS011;13300;51.032;3.710;2023-04-01T13:02:44;2.25;;;0.95;;
25345;SDS011;13300;51.032;3.710;2023-04-01T13:08:08;4.15;;;1.40;;
25345;SDS011;13300;51.032;3.710;2023-04-01T13:16:42;3.00;;;1.70;;
25345;SDS011;13300;51.032;3.710;2023-04-01T13:19:45;5.80;;;2.72;;
25345;SDS011;13300;51.032;3.710;2023-04-01T13:31:33;5.70;;;2.03;;
25345;SDS011;13300;51.032;3.710;2023-04-01T13:34:26;5.22;;;1.80;;
25345;SDS011;13300;51.032;3.710;2023-04-01T13:40:18;5.13;;;1.33;;
25345;SDS011;13300;51.032;3.710;2023-04-01T13:45:40;1.35;;;0.85;;
25345;SDS011;13300;51.032;3.710;2023-04-01T13:54:15;6.32;;;1.35;;
25345;SDS011;13300;51.032;3.710;2023-04-01T14:02:23;3.40;;;1.02;;
25345;SDS011;13300;51.032;3.710;2023-04-01T14:05:01;4.38;;;0.90;;
25345;SDS011;13300;51.032;3.710;2023-04-01T14:10:40;3.92;;;1.02;;
25345;SDS011;13300;51.032;3.710;2023-04-01T14:16:42;2.15;;;0.98;;
25345;SDS011;13300;51.032;3.710;2023-04-01T14:25:29;0.73;;;0.50;;
25345;SDS011;13300;51.032;3.710;2023-04-01T14:51:18;4.20;;;1.58;;
25345;SDS011;13300;51.032;3.710;2023-04-01T14:54:02;4.57;;;1.63;;
25345;SDS011;13300;51.032;3.710;2023-04-01T14:56:51;6.40;;;1.63;;
25345;SDS011;13300;51.032;3.710;2023-04-01T14:59:51;4.57;;;1.70;;
25345;SDS011;13300;51.032;3.710;2023-04-01T15:05:36;5.30;;;1.73;;
25345;SDS011;13300;51.032;3.710;2023-04-01T15:08:18;2.33;;;1.35;;
25345;SDS011;13300;51.032;3.710;2023-04-01T15:13:49;2.25;;;1.48;;
25345;SDS011;13300;51.032;3.710;2023-04-01T15:19:14;3.67;;;1.63;;
25345;SDS011;13300;51.032;3.710;2023-04-01T15:25:00;4.18;;;1.90;;
25345;SDS011;13300;51.032;3.710;2023-04-01T15:32:42;7.85;;;2.15;;
25345;SDS011;13300;51.032;3.710;2023-04-01T15:35:43;4.72;;;2.00;;
25345;SDS011;13300;51.032;3.710;2023-04-01T15:41:14;5.78;;;2.20;;
25345;SDS011;13300;51.032;3.710;2023-04-01T15:43:49;3.30;;;1.63;;
25345;SDS011;13300;51.032;3.710;2023-04-01T15:51:47;7.07;;;2.22;;
25345;SDS011;13300;51.032;3.710;2023-04-01T15:54:25;3.97;;;1.90;;
25345;SDS011;13300;51.032;3.710;2023-04-01T16:16:21;8.25;;;2.20;;
25345;SDS011;13300;51.032;3.710;2023-04-01T16:24:45;6.97;;;2.00;;
25345;SDS011;13300;51.032;3.710;2023-04-01T16:27:34;6.93;;;2.13;;
25345;SDS011;13300;51.032;3.710;2023-04-01T16:36:05;5.85;;;2.42;;
25345;SDS011;13300;51.032;3.710;2023-04-01T16:38:49;6.80;;;2.38;;
25345;SDS011;13300;51.032;3.710;2023-04-01T16:41:35;6.05;;;2.17;;
25345;SDS011;13300;51.032;3.710;2023-04-01T16:44:23;5.60;;;2.60;;
25345;SDS011;13300;51.032;3.710;2023-04-01T16:46:52;5.85;;;2.22;;
25345;SDS011;13300;51.032;3.710;2023-04-01T17:00:24;8.98;;;3.55;;
25345;SDS011;13300;51.032;3.710;2023-04-01T17:03:15;6.05;;;3.55;;
25345;SDS011;13300;51.032;3.710;2023-04-01T17:08:59;7.00;;;4.20;;
25345;SDS011;13300;51.032;3.710;2023-04-01T17:20:49;10.77;;;4.50;;
25345;SDS011;13300;51.032;3.710;2023-04-01T17:24:27;11.10;;;5.38;;
25345;SDS011;13300;51.032;3.710;2023-04-01T17:26:34;10.20;;;4.20;;
25345;SDS011;13300;51.032;3.710;2023-04-01T17:31:45;5.60;;;2.90;;
25345;SDS011;13300;51.032;3.710;2023-04-01T17:37:04;6.65;;;3.30;;
25345;SDS011;13300;51.032;3.710;2023-04-01T17:45:21;7.97;;;4.28;;
25345;SDS011;13300;51.032;3.710;2023-04-01T17:54:00;12.73;;;5.22;;
25345;SDS011;13300;51.032;3.710;2023-04-01T17:56:34;12.45;;;5.93;;
25345;SDS011;13300;51.032;3.710;2023-04-01T18:01:48;16.98;;;5.95;;
25345;SDS011;13300;51.032;3.710;2023-04-01T18:07:46;13.10;;;6.70;;
25345;SDS011;13300;51.032;3.710;2023-04-01T18:17:20;16.25;;;6.78;;
25345;SDS011;13300;51.032;3.710;2023-04-01T18:22:36;15.88;;;8.00;;
25345;SDS011;13300;51.032;3.710;2023-04-01T18:25:37;16.77;;;7.47;;
25345;SDS011;13300;51.032;3.710;2023-04-01T18:31:17;20.65;;;8.40;;
25345;SDS011;13300;51.032;3.710;2023-04-01T18:34:02;18.42;;;8.77;;
25345;SDS011;13300;51.032;3.710;2023-04-01T18:36:51;26.48;;;10.70;;
25345;SDS011;13300;51.032;3.710;2023-04-01T18:44:47;26.13;;;10.23;;
25345;SDS011;13300;51.032;3.710;2023-04-01T18:47:34;23.85;;;11.32;;
25345;SDS011;13300;51.032;3.710;2023-04-01T18:52:57;28.75;;;12.57;;
25345;SDS011;13300;51.032;3.710;2023-04-01T18:56:06;25.30;;;12.48;;
25345;SDS011;13300;51.032;3.710;2023-04-01T18:58:34;30.10;;;15.82;;
25345;SDS011;13300;51.032;3.710;2023-04-01T19:01:04;27.50;;;13.30;;
25345;SDS011;13300;51.032;3.710;2023-04-01T19:06:33;25.95;;;11.25;;
25345;SDS011;13300;51.032;3.710;2023-04-01T19:20:52;45.58;;;14.88;;
25345;SDS011;13300;51.032;3.710;2023-04-01T19:34:49;41.05;;;15.13;;
25345;SDS011;13300;51.032;3.710;2023-04-01T19:37:32;36.55;;;14.82;;
25345;SDS011;13300;51.032;3.710;2023-04-01T19:40:19;33.58;;;14.63;;
25345;SDS011;13300;51.032;3.710;2023-04-01T19:54:15;32.90;;;13.52;;
25345;SDS011;13300;51.032;3.710;2023-04-01T19:56:50;36.05;;;13.77;;
25345;SDS011;13300;51.032;3.710;2023-04-01T20:04:53;44.10;;;14.73;;
25345;SDS011;13300;51.032;3.710;2023-04-01T20:10:09;34.28;;;14.70;;
25345;SDS011;13300;51.032;3.710;2023-04-01T20:15:31;44.97;;;17.17;;
25345;SDS011;13300;51.032;3.710;2023-04-01T20:18:15;52.00;;;17.20;;
25345;SDS011;13300;51.032;3.710;2023-04-01T20:20:56;47.53;;;15.68;;
25345;SDS011;13300;51.032;3.710;2023-04-01T20:23:35;37.08;;;16.48;;
25345;SDS011;13300;51.032;3.710;2023-04-01T20:26:13;43.72;;;16.45;;
25345;SDS011;13300;51.032;3.710;2023-04-01T20:28:45;53.20;;;15.80;;
25345;SDS011;13300;51.032;3.710;2023-04-01T20:31:34;42.58;;;16.75;;
25345;SDS011;13300;51.032;3.710;2023-04-01T20:48:19;50.05;;;19.88;;
25345;SDS011;13300;51.032;3.710;2023-04-01T20:53:50;51.72;;;19.30;;
25345;SDS011;13300;51.032;3.710;2023-04-01T20:58:51;55.50;;;20.33;;
25345;SDS011;13300;51.032;3.710;2023-04-01T21:01:59;54.13;;;21.42;;
25345;SDS011;13300;51.032;3.710;2023-04-01T21:07:54;57.38;;;20.23;;
25345;SDS011;13300;51.032;3.710;2023-04-01T21:16:25;56.22;;;22.73;;
25345;SDS011;13300;51.032;3.710;2023-04-01T21:25:03;59.30;;;22.48;;
25345;SDS011;13300;51.032;3.710;2023-04-01T21:30:37;62.25;;;22.20;;
25345;SDS011;13300;51.032;3.710;2023-04-01T21:44:20;65.00;;;21.85;;
25345;SDS011;13300;51.032;3.710;2023-04-01T21:55:32;57.25;;;23.55;;
25345;SDS011;13300;51.032;3.710;2023-04-01T21:58:38;75.43;;;24.48;;
25345;SDS011;13300;51.032;3.710;2023-04-01T22:04:46;70.18;;;24.02;;
25345;SDS011;13300;51.032;3.710;2023-04-01T22:07:25;67.25;;;25.52;;
25345;SDS011;13300;51.032;3.710;2023-04-01T22:10:35;74.07;;;26.70;;
25345;SDS011;13300;51.032;3.710;2023-04-01T22:16:23;71.13;;;24.55;;
25345;SDS011;13300;51.032;3.710;2023-04-01T22:24:09;72.32;;;24.08;;
25345;SDS011;13300;51.032;3.710;2023-04-01T22:32:59;65.57;;;23.02;;
25345;SDS011;13300;51.032;3.710;2023-04-01T22:35:33;61.78;;;23.35;;
25345;SDS011;13300;51.032;3.710;2023-04-01T22:41:06;65.97;;;23.58;;
25345;SDS011;13300;51.032;3.710;2023-04-01T22:43:55;63.55;;;22.30;;
25345;SDS011;13300;51.032;3.710;2023-04-01T22:46:29;75.38;;;25.30;;
25345;SDS011;13300;51.032;3.710;2023-04-01T22:54:34;71.28;;;26.00;;
25345;SDS011;13300;51.032;3.710;2023-04-01T22:59:58;70.47;;;26.30;;
25345;SDS011;13300;51.032;3.710;2023-04-01T23:02:36;65.97;;;25.17;;
25345;SDS011;13300;51.032;3.710;2023-04-01T23:05:09;64.45;;;26.38;;
25345;SDS011;13300;51.032;3.710;2023-04-01T23:10:56;65.30;;;25.15;;
25345;SDS011;13300;51.032;3.710;2023-04-01T23:13:57;66.50;;;25.52;;
25345;SDS011;13300;51.032;3.710;2023-04-01T23:16:52;57.53;;;24.45;;
25345;SDS011;13300;51.032;3.710;2023-04-01T23:25:01;60.08;;;24.92;;
25345;SDS011;13300;51.032;3.710;2023-04-01T23:27:53;60.10;;;26.23;;
25345;SDS011;13300;51.032;3.710;2023-04-01T23:30:46;57.53;;;27.38;;
25345;SDS011;13300;51.032;3.710;2023-04-01T23:35:51;67.07;;;29.77;;
25345;SDS011;13300;51.032;3.710;2023-04-01T23:38:39;66.32;;;29.27;;
25345;SDS011;13300;51.032;3.710;2023-04-01T23:41:07;74.03;;;33.05;;
25345;SDS011;13300;51.032;3.710;2023-04-01T23:46:34;67.15;;;31.92;;
25345;SDS011;13300;51.032;3.710;2023-04-01T23:49:02;57.50;;;28.35;;
25345;SDS011;13300;51.032;3.710;2023-04-01T23:51:37;67.75;;;30.95;;
25345;SDS011;13300;51.032;3.710;2023-04-01T23:56:45;72.93;;;33.45;;
25345;SDS011;13300;51.032;3.710;2023-04-01T23:59:15;71.03;;;33.55;;
